Alpine, Indiana
Current Conditions -  °F | °C
As of 4:55 AM on Sunday 21 Dec 2014 (Local Time) from KI67 Reporting Station
Overcast Overcast  
Wind Chill: 23°   Ceiling: 200
Heat Index: 23°   Visibility: 4mi
Dew Point: 21°   Wind: 0mph
Humidity: 93%   Direction: NA
Pressure: 30.31"   Gusts: NA
Location:  39.645°N, 85.1744°W
Report Text: KI67 210955Z AUTO 00000KT 4SM OVC002 M05/M06 A3031 RMK AO1
Loading
Personal Weather Stations






























Interactive Weather Map New forecast layout! Learn more

10-Day Weather Forecast

Advertisements
Track Severe Weather on mobile